Hobart, OK

7:49 PM CDT on May 29, 2015 (GMT -0500)
Hobart OK | | Change Station
CLOSE
Current Station
Personal Weather Station
Location: Hobart, OK
Elevation: 1572 ft
Nearby Weather Stations
Active Advisory: Flash Flood Watch

Elev 1572 ft 35.03 °N, 99.10 °W | Updated 1 minute ago

Clear
Clear
82.9 °F
Feels Like 84 °F
N
4.2
Wind Variable Wind from NE

Today
High -- | Low -- °F
--% Chance of Precip.
Yesterday
High -- | Low -- °F
Precip. -- in
6:24 AM 8:43 PM
Waxing Gibbous, 87% visible
Pressure 29.90 in
Visibility 10.0 miles
Clouds Clear
Heat Index 84 °F
Dew Point 63 °F
Humidity 51%
Rainfall 0.00 in
Snow Depth Not available.
UV 2 out of 12
Pollen 1.00 out of 12
Air Quality Not available.
Flu Activity Sporadic
METAR KHBR 292353Z AUTO 00000KT 10SM CLR 28/14 A2994 RMK AO2 SLP123 T02780139 10283 20233 55003

More Conditions Fewer Conditions

Pressure 29.90 in
Visibility 10.0 miles
Clouds Clear
Heat Index 84 °F
Dew Point 63 °F
Humidity 51%
Rainfall 0.00 in
Snow Depth Not available.
UV 2 out of 12
Pollen 1.00 out of 12
Air Quality Not available.
Flu Activity Sporadic
METAR KHBR 292353Z AUTO 00000KT 10SM CLR 28/14 A2994 RMK AO2 SLP123 T02780139 10283 20233 55003

More Conditions Fewer Conditions

10-Day Weather Forecast

Almanac

Astronomy

May. 29, 2015 Rise Set
Actual Time
Civil Twilight
Nautical Twilight
Astronomical Twilight
Moon
Length of Visible Light
Length of Day
Tomorrow will be .
, % of the Moon is Illuminated

Today's Extremes

State Highs State Lows

Community

WunderPhotos

Upload Photos

1,825,411 photos uploaded!

WunderBlogs® & News

Nearby

Air Quality

  Air Quality AQ Index Pollutant
Not available.

Snow Depth

Station Depth Elevation

Earthquake Activity

City Distance Mag. Time & Date
Minimum magnitude displayed is 2.5.

Coastal Water Temperatures

Place Temperature

Stations

Nearby Weather Stations

Station Location Temp. Windchill Dew Point Humidity Wind Precip. Elev Updated Type
                   
Flash Flood Watch
Statement as of 3:13 PM CDT on May 29, 2015

... Flash Flood Watch remains in effect through Saturday evening...

The Flash Flood Watch continues for

* all of northern... central... and southern Oklahoma... and western
North Texas.

* Through Saturday evening

* one more round of heavy rainfall is expected this evening and
overnight as a complex of storms moves across portions of
southern Oklahoma and North Texas. Additional storms are
expected to develop along and behind a cold front moving through
the area. Rainfall totals of 1 to 2 inches will be possible with
locally higher amounts... especially along and south of the Red
River.

Precautionary/preparedness actions...

Monitor weather forecasts and information. Make plans to get to
higher ground if flooding happens.



Austin